createdAt,value
2022-10-21T00:02:48.308Z,13.00
2022-10-21T00:05:36.830Z,12.90
2022-10-21T00:08:27.057Z,13.00
2022-10-21T00:11:15.668Z,13.00
2022-10-21T00:14:04.347Z,13.00
2022-10-21T00:16:52.905Z,13.10
2022-10-21T00:19:42.819Z,13.10
2022-10-21T00:22:31.376Z,13.10
2022-10-21T00:25:21.332Z,13.00
2022-10-21T00:28:09.907Z,13.00
2022-10-21T00:30:59.025Z,13.00
2022-10-21T00:33:47.588Z,13.10
2022-10-21T00:36:36.174Z,13.10
2022-10-21T00:39:24.695Z,13.10
2022-10-21T00:42:18.099Z,13.10
2022-10-21T00:45:20.430Z,13.10
2022-10-21T00:48:14.415Z,13.10
2022-10-21T00:51:07.219Z,13.10
2022-10-21T00:53:56.026Z,13.10
2022-10-21T00:56:47.960Z,13.10
2022-10-21T00:59:41.657Z,13.10
2022-10-21T01:02:30.552Z,13.10
2022-10-21T01:05:19.917Z,13.10
2022-10-21T01:08:08.455Z,13.10
2022-10-21T01:10:57.419Z,13.00
2022-10-21T01:13:58.561Z,13.00
2022-10-21T01:16:55.529Z,13.00
2022-10-21T01:20:17.517Z,13.00
2022-10-21T01:23:44.504Z,13.00
2022-10-21T01:27:08.540Z,13.00
2022-10-21T01:30:38.914Z,13.00
2022-10-21T01:33:52.754Z,12.90
2022-10-21T01:36:45.211Z,12.90
2022-10-21T01:39:39.822Z,12.90
2022-10-21T01:42:35.909Z,12.90
2022-10-21T01:45:31.090Z,12.90
2022-10-21T01:48:23.292Z,12.90
2022-10-21T01:51:14.480Z,12.80
2022-10-21T01:54:08.525Z,12.80
2022-10-21T01:56:58.703Z,12.80
2022-10-21T01:59:48.059Z,12.90
2022-10-21T02:02:40.661Z,12.90
2022-10-21T02:05:32.052Z,12.90
2022-10-21T02:08:22.057Z,12.80
2022-10-21T02:11:12.422Z,12.80
2022-10-21T02:14:05.075Z,12.80
2022-10-21T02:16:55.277Z,12.80
2022-10-21T02:19:46.604Z,12.80
2022-10-21T02:22:37.393Z,12.80
2022-10-21T02:25:32.815Z,12.80
2022-10-21T02:28:22.055Z,12.80
2022-10-21T02:31:26.181Z,12.90
2022-10-21T02:34:27.498Z,12.90
2022-10-21T02:37:24.235Z,12.90
2022-10-21T02:40:18.764Z,12.90
2022-10-21T02:43:15.449Z,12.90
2022-10-21T02:46:08.868Z,12.90
2022-10-21T02:48:57.410Z,13.00
2022-10-21T02:51:47.203Z,12.90
2022-10-21T02:54:35.776Z,13.00
2022-10-21T02:57:24.362Z,13.00
2022-10-21T03:00:15.888Z,13.10
2022-10-21T03:03:04.510Z,13.10
2022-10-21T03:05:53.090Z,13.20
2022-10-21T03:08:41.726Z,13.20
2022-10-21T03:11:30.307Z,13.20
2022-10-21T03:14:18.882Z,13.20
2022-10-21T03:17:08.835Z,13.20
2022-10-21T03:19:57.432Z,13.20
2022-10-21T03:22:45.993Z,13.20
2022-10-21T03:25:35.808Z,13.20
2022-10-21T03:28:24.476Z,13.20
2022-10-21T03:31:13.087Z,13.10
2022-10-21T03:34:03.048Z,13.20
2022-10-21T03:36:51.657Z,13.10
2022-10-21T03:39:40.205Z,13.10
2022-10-21T03:42:29.320Z,13.10
2022-10-21T03:45:17.976Z,13.10
2022-10-21T03:48:06.840Z,13.10
2022-10-21T03:50:57.963Z,13.10
2022-10-21T03:53:46.525Z,13.10
2022-10-21T03:56:35.083Z,13.10
2022-10-21T03:59:23.633Z,13.10
2022-10-21T04:02:12.196Z,13.10
2022-10-21T04:05:00.736Z,13.10
2022-10-21T04:07:53.083Z,13.00
2022-10-21T04:10:42.300Z,13.00
2022-10-21T04:13:31.521Z,13.00
2022-10-21T04:16:21.630Z,13.00
2022-10-21T04:19:10.583Z,13.10
2022-10-21T04:21:59.145Z,13.10
2022-10-21T04:24:49.128Z,13.10
2022-10-21T04:27:37.680Z,13.00
2022-10-21T04:30:26.588Z,13.10
2022-10-21T04:33:15.140Z,13.10
2022-10-21T04:36:03.922Z,13.10
2022-10-21T04:38:52.624Z,13.10
2022-10-21T04:41:42.581Z,13.10
2022-10-21T04:44:31.161Z,13.10
2022-10-21T04:47:19.751Z,13.10
2022-10-21T04:50:08.996Z,13.10
2022-10-21T04:52:57.585Z,13.10
2022-10-21T04:55:46.161Z,13.20
2022-10-21T04:58:36.164Z,13.20
2022-10-21T05:01:24.782Z,13.20
2022-10-21T05:04:13.416Z,13.20
2022-10-21T05:07:01.946Z,13.20
2022-10-21T05:09:50.514Z,13.20
2022-10-21T05:12:39.076Z,13.20
2022-10-21T05:15:28.999Z,13.30
2022-10-21T05:18:17.568Z,13.20
2022-10-21T05:21:06.465Z,13.30
2022-10-21T05:23:55.084Z,13.20
2022-10-21T05:26:43.891Z,13.30
2022-10-21T05:29:32.462Z,13.30
2022-10-21T05:32:22.362Z,13.30
2022-10-21T05:35:12.165Z,13.30
2022-10-21T05:38:00.693Z,13.30
2022-10-21T05:40:49.330Z,13.30
2022-10-21T05:43:38.006Z,13.30
2022-10-21T05:46:26.540Z,13.40
2022-10-21T05:49:16.538Z,13.40
2022-10-21T05:52:05.238Z,13.40
2022-10-21T05:54:53.818Z,13.40
2022-10-21T05:57:42.467Z,13.40
2022-10-21T06:00:31.134Z,13.40
2022-10-21T06:03:19.646Z,13.40
2022-10-21T06:06:10.197Z,13.40
2022-10-21T06:08:58.836Z,13.40
2022-10-21T06:11:47.375Z,13.40
2022-10-21T06:14:36.851Z,13.50
2022-10-21T06:17:25.413Z,13.50
2022-10-21T06:20:14.025Z,13.50
2022-10-21T06:23:04.001Z,13.50
2022-10-21T06:25:59.102Z,13.50
2022-10-21T06:28:47.828Z,13.50
2022-10-21T06:31:36.461Z,13.60
2022-10-21T06:34:25.357Z,13.60
2022-10-21T06:37:13.916Z,13.60
2022-10-21T06:40:04.823Z,13.60
2022-10-21T06:42:53.393Z,13.60
2022-10-21T06:45:42.139Z,13.60
2022-10-21T06:48:31.209Z,13.70
2022-10-21T06:51:22.015Z,13.70
2022-10-21T06:54:10.621Z,13.70
2022-10-21T06:57:00.582Z,13.70
2022-10-21T06:59:49.229Z,13.60
2022-10-21T07:02:38.018Z,13.60
2022-10-21T07:05:26.729Z,13.60
2022-10-21T07:08:15.349Z,13.60
2022-10-21T07:11:03.918Z,13.50
2022-10-21T07:13:53.878Z,13.50
2022-10-21T07:16:42.459Z,13.50
2022-10-21T07:19:31.022Z,13.50
2022-10-21T07:22:19.543Z,13.50
2022-10-21T07:25:09.454Z,13.40
2022-10-21T07:27:58.571Z,13.50
2022-10-21T07:30:50.491Z,13.50
2022-10-21T07:33:39.347Z,13.50
2022-10-21T07:36:29.916Z,13.50
2022-10-21T07:39:18.984Z,13.60
2022-10-21T07:42:09.263Z,13.60
2022-10-21T07:45:01.180Z,13.60
2022-10-21T07:47:51.522Z,13.60
2022-10-21T07:50:40.099Z,13.60
2022-10-21T07:53:28.651Z,13.60
2022-10-21T07:56:20.004Z,13.60
2022-10-21T07:59:12.825Z,13.70
2022-10-21T08:02:02.070Z,13.60
2022-10-21T08:04:52.248Z,13.60
2022-10-21T08:07:40.816Z,13.60
2022-10-21T08:10:29.408Z,13.50
2022-10-21T08:13:18.447Z,13.60
2022-10-21T08:16:07.546Z,13.60
2022-10-21T08:18:56.693Z,13.60
2022-10-21T08:21:46.682Z,13.60
2022-10-21T08:24:39.878Z,13.60
2022-10-21T08:27:30.842Z,13.60
2022-10-21T08:30:19.533Z,13.60
2022-10-21T08:33:08.129Z,13.50
2022-10-21T08:35:56.695Z,13.60
2022-10-21T08:38:47.215Z,13.50
2022-10-21T08:42:13.160Z,13.60
2022-10-21T08:45:07.072Z,13.50
2022-10-21T08:47:59.175Z,13.60
2022-10-21T08:50:50.338Z,13.60
2022-10-21T08:53:42.677Z,13.60
2022-10-21T08:56:33.338Z,13.60
2022-10-21T08:59:24.639Z,13.70
2022-10-21T09:02:28.343Z,13.60
2022-10-21T09:05:28.713Z,13.60
2022-10-21T09:08:25.787Z,13.60
2022-10-21T09:11:25.138Z,13.60
2022-10-21T09:14:45.753Z,13.70
2022-10-21T09:18:06.900Z,13.60
2022-10-21T09:21:05.690Z,13.70
2022-10-21T09:24:02.789Z,13.70
2022-10-21T09:26:53.489Z,13.70
2022-10-21T09:29:45.851Z,13.70
2022-10-21T09:32:39.194Z,13.80
2022-10-21T09:35:35.157Z,13.70
2022-10-21T09:38:27.335Z,13.70
2022-10-21T09:44:19.394Z,13.80
2022-10-21T09:47:20.028Z,13.80
2022-10-21T09:50:15.892Z,13.90
2022-10-21T09:53:09.399Z,13.80
2022-10-21T09:56:03.936Z,13.90
2022-10-21T09:59:07.788Z,13.90
2022-10-21T10:01:57.174Z,13.90
2022-10-21T10:04:47.168Z,13.90
2022-10-21T10:07:37.317Z,13.90
2022-10-21T10:10:34.054Z,14.00
2022-10-21T10:13:24.485Z,14.00
2022-10-21T10:16:23.583Z,14.00
2022-10-21T10:19:16.472Z,14.00
2022-10-21T10:22:14.917Z,14.00
2022-10-21T10:25:09.731Z,14.00
2022-10-21T10:28:00.454Z,14.00
2022-10-21T10:30:51.948Z,14.00
2022-10-21T10:33:40.813Z,14.00
2022-10-21T10:36:33.563Z,14.00
2022-10-21T10:39:29.180Z,14.00
2022-10-21T10:42:19.251Z,14.10
2022-10-21T10:45:16.738Z,14.10
2022-10-21T10:48:07.211Z,14.00
2022-10-21T10:50:56.467Z,14.00
2022-10-21T10:53:45.259Z,14.00
2022-10-21T10:56:39.115Z,14.10
2022-10-21T10:59:35.670Z,14.20
2022-10-21T11:02:30.816Z,14.30
2022-10-21T11:05:24.732Z,14.40
2022-10-21T11:08:17.477Z,14.40
2022-10-21T11:11:12.657Z,14.40
2022-10-21T11:14:02.816Z,14.50
2022-10-21T11:17:11.581Z,14.50
2022-10-21T11:20:07.472Z,14.60
2022-10-21T11:23:01.094Z,14.60
2022-10-21T11:25:55.784Z,14.60
2022-10-21T11:28:51.235Z,14.60
2022-10-21T11:32:10.319Z,14.60
2022-10-21T11:35:08.894Z,14.70
2022-10-21T11:38:08.299Z,14.70
2022-10-21T11:41:03.312Z,14.70
2022-10-21T11:44:03.487Z,14.70
2022-10-21T11:47:06.770Z,14.80
2022-10-21T11:50:04.995Z,15.00
2022-10-21T11:53:12.922Z,15.20
2022-10-21T11:56:12.946Z,15.40
2022-10-21T11:59:15.774Z,15.60
2022-10-21T12:02:17.558Z,15.90
2022-10-21T12:05:13.483Z,15.90
2022-10-21T12:08:14.357Z,15.90
2022-10-21T12:11:09.976Z,16.10
2022-10-21T12:14:07.740Z,16.30
2022-10-21T12:16:59.231Z,16.50
2022-10-21T12:19:56.293Z,16.60
2022-10-21T12:22:45.758Z,16.20
2022-10-21T12:25:43.841Z,16.00
2022-10-21T12:28:37.637Z,15.90
2022-10-21T12:31:38.575Z,15.90
2022-10-21T12:34:27.147Z,15.60
2022-10-21T12:38:05.989Z,15.60
2022-10-21T12:41:27.571Z,15.70
2022-10-21T12:44:23.904Z,15.60
2022-10-21T12:47:25.908Z,15.50
2022-10-21T12:50:28.949Z,15.50
2022-10-21T12:53:30.283Z,15.40
2022-10-21T12:56:30.538Z,15.30
2022-10-21T12:59:32.734Z,15.30
2022-10-21T13:02:53.700Z,15.30
2022-10-21T13:06:04.202Z,15.30
2022-10-21T13:08:55.967Z,15.30
2022-10-21T13:11:44.611Z,15.30
2022-10-21T13:14:41.383Z,15.30
2022-10-21T13:17:52.112Z,15.20
2022-10-21T13:20:48.690Z,15.30
2022-10-21T13:23:44.482Z,15.30
2022-10-21T13:26:34.542Z,15.40
2022-10-21T13:29:34.903Z,15.40
2022-10-21T13:32:27.110Z,15.40
2022-10-21T13:35:35.687Z,15.40
2022-10-21T13:38:27.230Z,15.30
2022-10-21T13:41:24.669Z,15.30
2022-10-21T13:44:29.931Z,15.40
2022-10-21T13:47:28.650Z,15.40
2022-10-21T13:50:21.869Z,15.40
2022-10-21T13:53:26.455Z,15.50
2022-10-21T13:56:22.029Z,15.50
2022-10-21T13:59:25.592Z,15.60
2022-10-21T14:02:34.841Z,15.60
2022-10-21T14:05:37.057Z,15.70
2022-10-21T14:08:31.972Z,15.70
2022-10-21T14:11:24.245Z,15.80
2022-10-21T14:14:18.383Z,15.70
2022-10-21T14:17:15.767Z,15.70
2022-10-21T14:20:08.950Z,15.70
2022-10-21T14:22:57.697Z,15.70
2022-10-21T14:25:48.953Z,15.70
2022-10-21T14:28:38.199Z,15.70
2022-10-21T14:31:26.837Z,15.70
2022-10-21T14:34:27.864Z,15.70
2022-10-21T14:37:21.519Z,15.70
2022-10-21T14:40:20.720Z,15.80
2022-10-21T14:43:20.264Z,15.80
2022-10-21T14:46:10.800Z,15.80
2022-10-21T14:49:02.558Z,15.70
2022-10-21T14:51:59.501Z,15.70
2022-10-21T14:54:50.665Z,15.60
2022-10-21T14:57:42.541Z,15.60
2022-10-21T15:00:33.235Z,15.60
2022-10-21T15:03:37.569Z,15.60
2022-10-21T15:06:28.597Z,15.50
2022-10-21T15:09:23.499Z,15.50
2022-10-21T15:12:19.773Z,15.60
2022-10-21T15:15:41.517Z,15.60
2022-10-21T15:18:33.378Z,15.60
2022-10-21T15:21:28.714Z,15.50
2022-10-21T15:24:22.794Z,15.50
2022-10-21T15:27:18.840Z,15.50
2022-10-21T15:30:16.162Z,15.50
2022-10-21T15:33:04.851Z,15.40
2022-10-21T15:36:02.345Z,15.40
2022-10-21T15:38:50.872Z,15.40
2022-10-21T15:41:40.989Z,15.40
2022-10-21T15:44:30.875Z,15.40
2022-10-21T15:47:19.512Z,15.40
2022-10-21T15:50:14.487Z,15.40
2022-10-21T15:53:03.062Z,15.40
2022-10-21T15:55:51.747Z,15.40
2022-10-21T15:58:41.756Z,15.30
2022-10-21T16:01:30.473Z,15.30
2022-10-21T16:04:19.728Z,15.30
2022-10-21T16:07:19.257Z,15.30
2022-10-21T16:10:17.939Z,15.20
2022-10-21T16:13:06.482Z,15.20
2022-10-21T16:15:57.291Z,15.20
2022-10-21T16:18:45.901Z,15.20
2022-10-21T16:21:34.487Z,15.20
2022-10-21T16:24:23.047Z,15.20
2022-10-21T16:27:14.523Z,15.20
2022-10-21T16:30:16.539Z,15.20
2022-10-21T16:33:06.547Z,15.20
2022-10-21T16:35:55.745Z,15.20
2022-10-21T16:38:45.905Z,15.20
2022-10-21T16:41:35.445Z,15.20
2022-10-21T16:44:24.011Z,15.10
2022-10-21T16:47:17.404Z,15.10
2022-10-21T16:50:15.052Z,15.10
2022-10-21T16:53:04.394Z,15.10
2022-10-21T16:55:52.916Z,15.00
2022-10-21T16:58:41.518Z,15.00
2022-10-21T17:01:30.153Z,15.00
2022-10-21T17:04:18.823Z,15.00
2022-10-21T17:07:08.782Z,14.90
2022-10-21T17:09:57.306Z,14.90
2022-10-21T17:12:46.057Z,15.00
2022-10-21T17:15:34.623Z,15.00
2022-10-21T17:18:23.169Z,14.90
2022-10-21T17:21:20.335Z,14.90
2022-10-21T17:24:15.103Z,14.90
2022-10-21T17:27:03.666Z,15.00
2022-10-21T17:29:52.256Z,15.00
2022-10-21T17:35:34.307Z,15.00
2022-10-21T17:38:22.881Z,15.00
2022-10-21T17:41:14.600Z,15.00
2022-10-21T17:44:03.438Z,15.00
2022-10-21T17:46:54.664Z,15.00
2022-10-21T17:49:43.631Z,15.00
2022-10-21T17:52:32.124Z,15.00
2022-10-21T17:55:20.793Z,15.00
2022-10-21T17:58:10.765Z,15.00
2022-10-21T18:00:59.723Z,15.00
2022-10-21T18:03:48.302Z,15.00
2022-10-21T18:06:37.010Z,15.00
2022-10-21T18:09:25.663Z,14.90
2022-10-21T18:12:14.396Z,14.90
2022-10-21T18:15:05.373Z,14.80
2022-10-21T18:17:53.906Z,14.90
2022-10-21T18:20:42.473Z,14.90
2022-10-21T18:23:31.041Z,14.90
2022-10-21T18:26:24.882Z,14.90
2022-10-21T18:29:13.465Z,14.90
2022-10-21T18:32:03.433Z,15.00
2022-10-21T18:34:52.141Z,15.00
2022-10-21T18:37:40.784Z,14.90
2022-10-21T18:40:29.689Z,14.90
2022-10-21T18:43:18.263Z,14.90
2022-10-21T18:46:06.989Z,14.90
2022-10-21T18:48:56.993Z,14.80
2022-10-21T18:51:46.313Z,14.90
2022-10-21T18:54:34.869Z,14.80
2022-10-21T18:57:23.471Z,14.80
2022-10-21T19:00:12.590Z,14.80
2022-10-21T19:03:01.104Z,14.80
2022-10-21T19:05:51.059Z,14.80
2022-10-21T19:08:40.178Z,14.70
2022-10-21T19:11:29.138Z,14.70
2022-10-21T19:14:17.812Z,14.70
2022-10-21T19:17:07.001Z,14.60
2022-10-21T19:19:55.597Z,14.60
2022-10-21T19:22:45.609Z,14.60
2022-10-21T19:25:34.409Z,14.50
2022-10-21T19:28:22.937Z,14.50
2022-10-21T19:31:12.342Z,14.40
2022-10-21T19:34:00.907Z,14.40
2022-10-21T19:36:49.585Z,14.40
2022-10-21T19:39:39.811Z,14.40
2022-10-21T19:42:29.276Z,14.40
2022-10-21T19:45:18.265Z,14.40
2022-10-21T19:48:07.935Z,14.50
2022-10-21T19:50:57.908Z,14.50
2022-10-21T19:53:47.330Z,14.50
2022-10-21T19:56:37.509Z,14.50
2022-10-21T19:59:26.091Z,14.50
2022-10-21T20:02:14.640Z,14.50
2022-10-21T20:05:03.231Z,14.50
2022-10-21T20:07:51.793Z,14.50
2022-10-21T20:10:40.346Z,14.50
2022-10-21T20:13:30.817Z,14.40
2022-10-21T20:16:21.293Z,14.30
2022-10-21T20:19:11.304Z,14.30
2022-10-21T20:21:59.846Z,14.30
2022-10-21T20:24:48.477Z,14.30
2022-10-21T20:27:37.319Z,14.30
2022-10-21T20:30:27.622Z,14.30
2022-10-21T20:33:16.150Z,14.30
2022-10-21T20:36:06.119Z,14.30
2022-10-21T20:38:56.944Z,14.30
2022-10-21T20:41:45.637Z,14.40
2022-10-21T20:44:34.260Z,14.40
2022-10-21T20:47:26.450Z,14.40
2022-10-21T20:50:17.429Z,14.30
2022-10-21T20:53:05.997Z,14.30
2022-10-21T20:55:55.412Z,14.20
2022-10-21T20:58:44.770Z,14.20
2022-10-21T21:01:36.078Z,14.20
2022-10-21T21:04:26.066Z,14.20
2022-10-21T21:07:14.611Z,14.20
2022-10-21T21:10:03.742Z,14.10
2022-10-21T21:12:52.476Z,14.10
2022-10-21T21:15:41.077Z,14.10
2022-10-21T21:18:29.652Z,14.10
2022-10-21T21:21:21.604Z,14.20
2022-10-21T21:24:10.148Z,14.20
2022-10-21T21:26:58.728Z,14.10
2022-10-21T21:29:47.304Z,14.20
2022-10-21T21:32:35.836Z,14.20
2022-10-21T21:35:24.416Z,14.20
2022-10-21T21:38:14.353Z,14.20
2022-10-21T21:41:05.542Z,14.30
2022-10-21T21:43:58.445Z,14.20
2022-10-21T21:46:47.080Z,14.20
2022-10-21T21:49:35.933Z,14.20
2022-10-21T21:52:25.820Z,14.20
2022-10-21T21:55:15.904Z,14.20
2022-10-21T21:58:05.035Z,14.10
2022-10-21T22:00:53.617Z,14.10
2022-10-21T22:03:42.519Z,14.10
2022-10-21T22:06:33.236Z,14.10
2022-10-21T22:09:21.846Z,14.10
2022-10-21T22:12:14.483Z,14.10
2022-10-21T22:15:03.775Z,14.10
2022-10-21T22:17:53.420Z,14.00
2022-10-21T22:20:42.447Z,14.00
2022-10-21T22:23:30.994Z,13.90
2022-10-21T22:26:21.545Z,13.90
2022-10-21T22:29:11.453Z,14.00
2022-10-21T22:32:00.162Z,14.00
2022-10-21T22:34:48.799Z,13.90
2022-10-21T22:37:38.960Z,13.90
2022-10-21T22:40:27.672Z,14.00
2022-10-21T22:43:16.196Z,14.10
2022-10-21T22:46:21.681Z,14.10
2022-10-21T22:49:14.811Z,14.10
2022-10-21T22:52:03.380Z,14.20
2022-10-21T22:54:51.912Z,14.20
2022-10-21T22:57:40.480Z,14.20
2022-10-21T23:00:29.030Z,14.20
2022-10-21T23:03:19.754Z,14.10
2022-10-21T23:06:08.737Z,14.10
2022-10-21T23:08:57.462Z,14.10
2022-10-21T23:11:47.196Z,14.10
2022-10-21T23:14:35.761Z,14.10
2022-10-21T23:17:25.680Z,14.00
2022-10-21T23:20:15.685Z,14.00
2022-10-21T23:23:04.234Z,14.00
2022-10-21T23:25:52.785Z,14.00
2022-10-21T23:28:41.349Z,14.00
2022-10-21T23:31:29.927Z,14.00
2022-10-21T23:34:18.543Z,14.00
2022-10-21T23:37:08.597Z,14.10
2022-10-21T23:39:57.169Z,14.00
2022-10-21T23:42:45.733Z,14.00
2022-10-21T23:45:35.053Z,14.00
2022-10-21T23:48:23.661Z,14.00
2022-10-21T23:51:12.242Z,14.00
2022-10-21T23:54:02.321Z,14.00
2022-10-21T23:56:50.917Z,14.10
2022-10-21T23:59:39.436Z,14.10
